KOUN/OUN METAR and TAF weather

Enter ICAO airport designator
Station Type Date Time Source
KOUN METAR 2019/07/15 20:45 UTC NOAA

KOUN 152045Z 05003KT 10SM SCT048 32/21 A2989


Station Type Date Time Source
KOUN Decoded METAR 2019/07/15 20:45 UTC NOAA

Norman / Max Westheimer, OK, United States (KOUN) 35-13N 097-27W 357M
Jul 15, 2019 - 04:45 PM EDT / 2019.07.15 2045 UTC
Wind: from the NE (050 degrees) at 3 MPH (3 KT):0
Visibility: 10 mile(s):0
Sky conditions: partly cloudy
Temperature: 89 F (32 C)
Dew Point: 69 F (21 C)
Relative Humidity: 52%
Pressure (altimeter): 29.89 in. Hg (1012 hPa)
ob: KOUN 152045Z 05003KT 10SM SCT048 32/21 A2989
cycle: 21

Station Type Date Time Source
KOUN TAF 2019/07/15 18:22 UTC NOAA

TAF KOUN 151720Z 1518/1618 35009G17KT P6SM BKN035
FM152100 03007KT P6SM SCT040 SCT250
FM160300 12005KT P6SM FEW250

Example: see airport list